createdAt,value
2019-03-22T00:00:01.006Z,0
2019-03-22T00:00:42.125Z,0
2019-03-22T00:01:22.727Z,0
2019-03-22T00:02:03.287Z,0
2019-03-22T00:02:43.869Z,0
2019-03-22T00:03:24.433Z,0
2019-03-22T00:04:04.995Z,0
2019-03-22T00:04:45.561Z,0
2019-03-22T00:05:26.152Z,0
2019-03-22T00:06:06.771Z,0
2019-03-22T00:06:47.368Z,0
2019-03-22T00:07:27.933Z,0
2019-03-22T00:08:08.491Z,0
2019-03-22T00:08:49.051Z,0
2019-03-22T00:09:29.675Z,0
2019-03-22T00:10:10.241Z,0
2019-03-22T00:10:50.872Z,0
2019-03-22T00:11:31.725Z,0
2019-03-22T00:12:12.094Z,0
2019-03-22T00:12:52.659Z,0
2019-03-22T00:13:33.211Z,0
2019-03-22T00:14:13.776Z,0
2019-03-22T00:14:54.339Z,0
2019-03-22T00:15:35.023Z,0
2019-03-22T00:16:15.680Z,0
2019-03-22T00:16:56.293Z,0
2019-03-22T00:17:36.862Z,0
2019-03-22T00:18:17.431Z,0
2019-03-22T00:18:57.990Z,0
2019-03-22T00:19:38.562Z,0
2019-03-22T00:20:19.131Z,0
2019-03-22T00:20:59.721Z,0
2019-03-22T00:21:40.270Z,0
2019-03-22T00:22:20.838Z,0
2019-03-22T00:23:01.387Z,0
2019-03-22T00:23:41.935Z,0
2019-03-22T00:24:22.518Z,0
2019-03-22T00:25:03.080Z,0
2019-03-22T00:25:43.649Z,0
2019-03-22T00:26:24.207Z,0
2019-03-22T00:27:15.561Z,0
2019-03-22T00:27:45.425Z,0
2019-03-22T00:28:25.994Z,0
2019-03-22T00:29:06.604Z,0
2019-03-22T00:29:47.166Z,0
2019-03-22T00:30:27.731Z,0
2019-03-22T00:31:08.323Z,0
2019-03-22T00:31:48.892Z,0
2019-03-22T00:32:29.466Z,0
2019-03-22T00:33:10.015Z,0
2019-03-22T00:33:50.576Z,0
2019-03-22T00:34:31.130Z,0
2019-03-22T00:35:11.699Z,0
2019-03-22T00:35:52.261Z,0
2019-03-22T00:36:32.821Z,0
2019-03-22T00:37:13.395Z,0
2019-03-22T00:37:53.973Z,0
2019-03-22T00:38:34.562Z,0
2019-03-22T00:39:15.118Z,0
2019-03-22T00:39:55.687Z,0
2019-03-22T00:40:36.246Z,0
2019-03-22T00:41:16.808Z,0
2019-03-22T00:41:57.392Z,0
2019-03-22T00:42:38.035Z,0
2019-03-22T00:43:18.664Z,0
2019-03-22T00:43:59.235Z,0
2019-03-22T00:44:39.809Z,0
2019-03-22T00:45:20.368Z,0
2019-03-22T00:46:00.933Z,0
2019-03-22T00:46:41.482Z,0
2019-03-22T00:47:22.059Z,0
2019-03-22T00:48:02.597Z,0
2019-03-22T00:48:43.188Z,0
2019-03-22T00:49:23.747Z,0
2019-03-22T00:50:04.309Z,0
2019-03-22T00:50:44.887Z,0
2019-03-22T00:51:25.440Z,0
2019-03-22T00:52:06.003Z,0
2019-03-22T00:52:46.563Z,0
2019-03-22T00:53:27.113Z,0
2019-03-22T00:54:07.681Z,0
2019-03-22T00:54:48.249Z,0
2019-03-22T00:55:28.812Z,0
2019-03-22T00:56:09.376Z,0
2019-03-22T00:56:49.935Z,0
2019-03-22T00:57:30.498Z,0
2019-03-22T00:58:11.543Z,0
2019-03-22T00:58:52.141Z,0
2019-03-22T00:59:32.669Z,0
2019-03-22T01:00:13.229Z,0
2019-03-22T01:00:53.791Z,0
2019-03-22T01:01:34.359Z,0
2019-03-22T01:02:14.922Z,0
2019-03-22T01:02:55.484Z,0
2019-03-22T01:03:36.048Z,0
2019-03-22T01:04:16.635Z,0
2019-03-22T01:04:57.221Z,0
2019-03-22T01:05:37.748Z,0
2019-03-22T01:06:18.317Z,0
2019-03-22T01:06:58.885Z,0
2019-03-22T01:07:39.504Z,0
2019-03-22T01:08:20.064Z,0
2019-03-22T01:09:00.627Z,0
2019-03-22T01:09:41.194Z,0
2019-03-22T01:10:21.778Z,0
2019-03-22T01:11:02.323Z,0
2019-03-22T01:11:42.938Z,0
2019-03-22T01:12:23.474Z,0
2019-03-22T01:13:04.031Z,0
2019-03-22T01:13:44.599Z,0
2019-03-22T01:14:25.157Z,0
2019-03-22T01:15:05.719Z,0
2019-03-22T01:15:46.279Z,0
2019-03-22T01:16:26.846Z,0
2019-03-22T01:17:07.414Z,0
2019-03-22T01:17:47.987Z,0
2019-03-22T01:18:28.550Z,0
2019-03-22T01:19:09.119Z,0
2019-03-22T01:19:49.684Z,0
2019-03-22T01:20:30.254Z,0
2019-03-22T01:21:10.823Z,0
2019-03-22T01:21:51.373Z,0
2019-03-22T01:22:31.936Z,0
2019-03-22T01:23:12.502Z,0
2019-03-22T01:23:53.072Z,0
2019-03-22T01:24:33.638Z,0
2019-03-22T01:25:14.205Z,0
2019-03-22T01:25:54.753Z,0
2019-03-22T01:26:35.317Z,0
2019-03-22T01:27:15.887Z,0
2019-03-22T01:27:56.468Z,0
2019-03-22T01:28:37.036Z,0
2019-03-22T01:29:17.588Z,0
2019-03-22T01:29:58.172Z,0
2019-03-22T01:30:38.739Z,0
2019-03-22T01:31:19.296Z,0
2019-03-22T01:31:59.887Z,0
2019-03-22T01:32:40.445Z,0
2019-03-22T01:33:21.008Z,0
2019-03-22T01:34:01.624Z,0
2019-03-22T01:34:42.212Z,0
2019-03-22T01:35:22.775Z,0
2019-03-22T01:36:03.394Z,0
2019-03-22T01:36:43.949Z,0
2019-03-22T01:37:24.500Z,0
2019-03-22T01:38:05.074Z,0
2019-03-22T01:38:45.644Z,0
2019-03-22T01:39:26.213Z,0
2019-03-22T01:40:06.785Z,0
2019-03-22T01:40:47.345Z,0
2019-03-22T01:41:27.917Z,0
2019-03-22T01:42:08.478Z,0
2019-03-22T01:42:49.034Z,0
2019-03-22T01:43:29.578Z,0
2019-03-22T01:44:10.137Z,0
2019-03-22T01:44:50.701Z,0
2019-03-22T01:45:31.263Z,0
2019-03-22T01:46:11.838Z,0
2019-03-22T01:46:52.405Z,0
2019-03-22T01:47:32.996Z,0
2019-03-22T01:48:13.543Z,0
2019-03-22T01:48:54.126Z,0
2019-03-22T01:49:34.707Z,0
2019-03-22T01:50:15.278Z,0
2019-03-22T01:50:55.854Z,0
2019-03-22T01:51:36.427Z,0
2019-03-22T01:52:16.977Z,0
2019-03-22T01:52:57.531Z,0
2019-03-22T01:53:38.087Z,0
2019-03-22T01:54:18.633Z,0
2019-03-22T01:54:59.189Z,0
2019-03-22T01:55:39.766Z,0
2019-03-22T01:56:20.348Z,0
2019-03-22T01:57:00.895Z,0
2019-03-22T01:57:52.213Z,0
2019-03-22T01:58:22.024Z,0
2019-03-22T01:59:02.628Z,0
2019-03-22T01:59:43.198Z,0
2019-03-22T02:00:23.765Z,0
2019-03-22T02:01:04.333Z,0
2019-03-22T02:01:44.891Z,0
2019-03-22T02:02:25.439Z,0
2019-03-22T02:03:05.996Z,0
2019-03-22T02:03:46.556Z,0
2019-03-22T02:04:27.133Z,0
2019-03-22T02:05:07.703Z,0
2019-03-22T02:05:48.277Z,0
2019-03-22T02:06:28.849Z,0
2019-03-22T02:07:09.404Z,0
2019-03-22T02:07:49.978Z,0
2019-03-22T02:08:30.541Z,0
2019-03-22T02:09:11.101Z,0
2019-03-22T02:09:51.647Z,0
2019-03-22T02:10:32.204Z,0
2019-03-22T02:11:12.827Z,0
2019-03-22T02:11:53.394Z,0
2019-03-22T02:12:33.950Z,0
2019-03-22T02:13:14.502Z,0
2019-03-22T02:13:55.048Z,0
2019-03-22T02:14:35.660Z,0
2019-03-22T02:15:16.263Z,0
2019-03-22T02:15:56.802Z,0
2019-03-22T02:16:37.364Z,0
2019-03-22T02:17:17.932Z,0
2019-03-22T02:17:58.491Z,0
2019-03-22T02:18:39.088Z,0
2019-03-22T02:19:19.651Z,0
2019-03-22T02:20:00.337Z,0
2019-03-22T02:20:40.770Z,0
2019-03-22T02:21:21.318Z,0
2019-03-22T02:22:01.915Z,0
2019-03-22T02:22:42.455Z,0
2019-03-22T02:23:23.040Z,0
2019-03-22T02:24:03.595Z,0
2019-03-22T02:24:44.164Z,0
2019-03-22T02:25:24.725Z,0
2019-03-22T02:26:05.273Z,0
2019-03-22T02:26:45.870Z,0
2019-03-22T02:27:26.435Z,0
2019-03-22T02:28:06.999Z,0
2019-03-22T02:28:47.556Z,0
2019-03-22T02:29:28.121Z,0
2019-03-22T02:30:08.681Z,0
2019-03-22T02:30:49.261Z,0
2019-03-22T02:31:29.812Z,0
2019-03-22T02:32:10.427Z,0
2019-03-22T02:32:50.983Z,0
2019-03-22T02:33:31.539Z,0
2019-03-22T02:34:12.107Z,0
2019-03-22T02:34:52.741Z,0
2019-03-22T02:35:33.286Z,0
2019-03-22T02:36:13.845Z,0
2019-03-22T02:36:54.413Z,0
2019-03-22T02:37:34.981Z,0
2019-03-22T02:38:15.547Z,0
2019-03-22T02:38:56.115Z,0
2019-03-22T02:39:36.799Z,0
2019-03-22T02:40:17.245Z,0
2019-03-22T02:40:57.818Z,0
2019-03-22T02:41:38.365Z,0
2019-03-22T02:42:18.926Z,0
2019-03-22T02:42:59.484Z,0
2019-03-22T02:43:40.061Z,0
2019-03-22T02:44:20.637Z,0
2019-03-22T02:45:01.198Z,0
2019-03-22T02:45:41.787Z,0
2019-03-22T02:46:22.376Z,0
2019-03-22T02:47:02.943Z,0
2019-03-22T02:47:43.509Z,0
2019-03-22T02:48:24.091Z,0
2019-03-22T02:49:04.649Z,0
2019-03-22T02:49:45.204Z,0
2019-03-22T02:50:25.769Z,0
2019-03-22T02:51:06.316Z,0
2019-03-22T02:51:46.936Z,0
2019-03-22T02:52:27.520Z,0
2019-03-22T02:53:08.076Z,0
2019-03-22T02:53:48.634Z,0
2019-03-22T02:54:29.202Z,0
2019-03-22T02:55:09.777Z,0
2019-03-22T02:55:50.392Z,0
2019-03-22T02:56:30.889Z,0
2019-03-22T02:57:11.438Z,0
2019-03-22T02:57:51.997Z,0
2019-03-22T02:58:32.577Z,0
2019-03-22T02:59:13.137Z,0
2019-03-22T02:59:53.702Z,0
2019-03-22T03:00:34.275Z,0
2019-03-22T03:01:14.877Z,0
2019-03-22T03:01:55.437Z,0
2019-03-22T03:02:35.988Z,0
2019-03-22T03:03:16.547Z,0
2019-03-22T03:03:57.128Z,0
2019-03-22T03:04:37.717Z,0
2019-03-22T03:05:18.281Z,0
2019-03-22T03:05:58.845Z,0
2019-03-22T03:06:39.401Z,0
2019-03-22T03:07:19.966Z,0
2019-03-22T03:08:00.532Z,0
2019-03-22T03:08:41.095Z,0
2019-03-22T03:09:21.651Z,0
2019-03-22T03:10:02.238Z,0
2019-03-22T03:10:42.777Z,0
2019-03-22T03:11:23.352Z,0
2019-03-22T03:12:03.920Z,0
2019-03-22T03:12:44.475Z,0
2019-03-22T03:13:25.039Z,0
2019-03-22T03:14:05.602Z,0
2019-03-22T03:14:46.158Z,0
2019-03-22T03:15:26.722Z,0
2019-03-22T03:16:07.275Z,0
2019-03-22T03:16:47.832Z,0
2019-03-22T03:17:28.410Z,0
2019-03-22T03:18:08.974Z,0
2019-03-22T03:18:49.523Z,0
2019-03-22T03:19:30.080Z,0
2019-03-22T03:20:10.679Z,0
2019-03-22T03:20:51.210Z,0
2019-03-22T03:21:31.764Z,0
2019-03-22T03:22:12.328Z,0
2019-03-22T03:22:52.886Z,0
2019-03-22T03:23:33.443Z,0
2019-03-22T03:24:13.991Z,0
2019-03-22T03:24:54.543Z,0
2019-03-22T03:25:35.123Z,0
2019-03-22T03:26:15.674Z,0
2019-03-22T03:26:56.238Z,0
2019-03-22T03:27:36.790Z,0
2019-03-22T03:28:17.352Z,0
2019-03-22T03:28:57.918Z,0
2019-03-22T03:29:38.503Z,0
2019-03-22T03:30:19.098Z,0
2019-03-22T03:30:59.631Z,0
2019-03-22T03:31:40.209Z,0
2019-03-22T03:32:20.768Z,0
2019-03-22T03:33:01.341Z,0
2019-03-22T03:33:41.926Z,0
2019-03-22T03:34:22.492Z,0
2019-03-22T03:35:03.062Z,0
2019-03-22T03:35:43.636Z,0
2019-03-22T03:36:24.209Z,0
2019-03-22T03:37:04.767Z,0
2019-03-22T03:37:45.355Z,0
2019-03-22T03:38:25.881Z,0
2019-03-22T03:39:06.442Z,0
2019-03-22T03:39:47.005Z,0
2019-03-22T03:40:27.561Z,0
2019-03-22T03:41:08.139Z,0
2019-03-22T03:41:48.689Z,0
2019-03-22T03:42:29.266Z,0
2019-03-22T03:43:09.836Z,0
2019-03-22T03:43:50.400Z,0
2019-03-22T03:44:30.960Z,0
2019-03-22T03:45:11.529Z,0
2019-03-22T03:45:52.102Z,0
2019-03-22T03:46:32.659Z,0
2019-03-22T03:47:13.220Z,0
2019-03-22T03:47:53.808Z,0
2019-03-22T03:48:34.374Z,0
2019-03-22T03:49:14.937Z,0
2019-03-22T03:49:55.519Z,0
2019-03-22T03:50:36.070Z,0
2019-03-22T03:51:16.632Z,0
2019-03-22T03:51:57.227Z,0
2019-03-22T03:52:39.450Z,0
2019-03-22T03:53:18.344Z,0
2019-03-22T03:53:58.909Z,0
2019-03-22T03:54:39.472Z,0
2019-03-22T03:55:20.040Z,0
2019-03-22T03:56:00.602Z,0
2019-03-22T03:56:41.191Z,0
2019-03-22T03:57:21.725Z,0
2019-03-22T03:58:02.291Z,0
2019-03-22T03:58:51.976Z,0
2019-03-22T03:59:23.581Z,0
2019-03-22T04:00:04.139Z,0
2019-03-22T04:00:44.718Z,0
2019-03-22T04:01:25.292Z,0
2019-03-22T04:02:05.851Z,0
2019-03-22T04:02:46.430Z,0
2019-03-22T04:03:27.004Z,0
2019-03-22T04:04:07.612Z,0
2019-03-22T04:04:48.168Z,0
2019-03-22T04:05:28.752Z,0
2019-03-22T04:06:09.307Z,0
2019-03-22T04:06:49.888Z,0
2019-03-22T04:07:30.444Z,0
2019-03-22T04:08:11.031Z,0
2019-03-22T04:08:51.555Z,0
2019-03-22T04:09:32.105Z,0
2019-03-22T04:10:12.666Z,0
2019-03-22T04:10:53.230Z,0
2019-03-22T04:11:33.806Z,0
2019-03-22T04:12:14.393Z,0
2019-03-22T04:12:54.944Z,0
2019-03-22T04:13:35.517Z,0
2019-03-22T04:14:16.091Z,0
2019-03-22T04:14:56.649Z,0
2019-03-22T04:15:37.219Z,0
2019-03-22T04:16:17.789Z,0
2019-03-22T04:16:58.360Z,0
2019-03-22T04:17:38.917Z,0
2019-03-22T04:18:19.484Z,0
2019-03-22T04:19:00.048Z,0
2019-03-22T04:19:40.610Z,0
2019-03-22T04:20:21.210Z,0
2019-03-22T04:21:01.769Z,0
2019-03-22T04:21:42.321Z,0
2019-03-22T04:22:22.891Z,0
2019-03-22T04:23:03.426Z,0
2019-03-22T04:23:43.973Z,0
2019-03-22T04:24:24.523Z,0
2019-03-22T04:25:05.095Z,0
2019-03-22T04:25:45.672Z,0
2019-03-22T04:26:26.236Z,0
2019-03-22T04:27:06.815Z,0
2019-03-22T04:27:47.363Z,0
2019-03-22T04:28:27.915Z,0
2019-03-22T04:29:08.828Z,0
2019-03-22T04:29:49.352Z,0
2019-03-22T04:30:29.943Z,0
2019-03-22T04:31:10.496Z,0
2019-03-22T04:31:51.063Z,0
2019-03-22T04:32:31.639Z,0
2019-03-22T04:33:12.222Z,0
2019-03-22T04:33:52.749Z,0
2019-03-22T04:34:33.316Z,0
2019-03-22T04:35:13.894Z,0
2019-03-22T04:35:54.455Z,0
2019-03-22T04:36:35.020Z,0
2019-03-22T04:37:15.596Z,0
2019-03-22T04:37:56.132Z,0
2019-03-22T04:38:36.816Z,0
2019-03-22T04:39:17.402Z,0
2019-03-22T04:39:57.958Z,0
2019-03-22T04:40:38.513Z,0
2019-03-22T04:41:19.099Z,0
2019-03-22T04:41:59.662Z,0
2019-03-22T04:42:40.243Z,0
2019-03-22T04:43:20.800Z,0
2019-03-22T04:44:01.352Z,0
2019-03-22T04:44:41.922Z,0
2019-03-22T04:45:22.499Z,0
2019-03-22T04:46:03.093Z,0
2019-03-22T04:46:43.656Z,0
2019-03-22T04:47:24.356Z,4
2019-03-22T04:48:04.932Z,4
2019-03-22T04:48:45.500Z,0
2019-03-22T04:49:26.074Z,4
2019-03-22T04:50:06.622Z,0
2019-03-22T04:50:47.187Z,4
2019-03-22T04:51:27.762Z,4
2019-03-22T04:52:08.315Z,4
2019-03-22T04:52:48.885Z,4
2019-03-22T04:53:29.443Z,8
2019-03-22T04:54:10.014Z,4
2019-03-22T04:54:50.577Z,8
2019-03-22T04:55:31.144Z,8
2019-03-22T04:56:11.706Z,8
2019-03-22T04:56:52.282Z,8
2019-03-22T04:57:32.872Z,8
2019-03-22T04:58:13.434Z,8
2019-03-22T04:58:53.988Z,8
2019-03-22T04:59:34.550Z,8
2019-03-22T05:00:15.116Z,12
2019-03-22T05:00:55.677Z,12
2019-03-22T05:01:36.267Z,12
2019-03-22T05:02:16.822Z,12
2019-03-22T05:02:57.393Z,12
2019-03-22T05:03:37.980Z,16
2019-03-22T05:04:18.705Z,16
2019-03-22T05:04:59.256Z,12
2019-03-22T05:05:39.835Z,16
2019-03-22T05:06:20.436Z,16
2019-03-22T05:07:01.005Z,16
2019-03-22T05:07:41.570Z,20
2019-03-22T05:08:22.147Z,16
2019-03-22T05:09:02.752Z,20
2019-03-22T05:09:43.316Z,20
2019-03-22T05:10:23.897Z,20
2019-03-22T05:11:04.447Z,24
2019-03-22T05:11:44.998Z,24
2019-03-22T05:12:25.567Z,28
2019-03-22T05:13:06.126Z,28
2019-03-22T05:13:46.691Z,28
2019-03-22T05:14:27.254Z,28
2019-03-22T05:15:07.820Z,32
2019-03-22T05:15:48.381Z,32
2019-03-22T05:16:28.982Z,32
2019-03-22T05:17:09.544Z,32
2019-03-22T05:17:50.125Z,36
2019-03-22T05:18:30.682Z,36
2019-03-22T05:19:11.262Z,36
2019-03-22T05:19:51.823Z,40
2019-03-22T05:20:32.380Z,40
2019-03-22T05:21:12.932Z,44
2019-03-22T05:21:53.503Z,48
2019-03-22T05:22:34.065Z,48
2019-03-22T05:23:14.642Z,48
2019-03-22T05:23:55.210Z,52
2019-03-22T05:24:35.770Z,52
2019-03-22T05:25:16.336Z,52
2019-03-22T05:25:56.903Z,56
2019-03-22T05:26:37.458Z,56
2019-03-22T05:27:18.024Z,60
2019-03-22T05:27:58.593Z,60
2019-03-22T05:28:39.153Z,68
2019-03-22T05:29:30.077Z,68
2019-03-22T05:30:00.438Z,76
2019-03-22T05:30:40.873Z,76
2019-03-22T05:31:21.452Z,80
2019-03-22T05:32:02.025Z,84
2019-03-22T05:32:42.621Z,84
2019-03-22T05:33:23.204Z,92
2019-03-22T05:34:03.755Z,96
2019-03-22T05:34:44.330Z,96
2019-03-22T05:35:24.882Z,100
2019-03-22T05:36:05.464Z,104
2019-03-22T05:36:46.021Z,108
2019-03-22T05:37:26.618Z,108
2019-03-22T05:38:07.180Z,112
2019-03-22T05:38:47.752Z,116
2019-03-22T05:39:28.332Z,116
2019-03-22T05:40:08.893Z,120
2019-03-22T05:40:49.463Z,120
2019-03-22T05:41:30.041Z,120
2019-03-22T05:42:10.599Z,124
2019-03-22T05:42:51.165Z,124
2019-03-22T05:43:31.722Z,124
2019-03-22T05:44:12.272Z,124
2019-03-22T05:44:52.847Z,124
2019-03-22T05:45:33.408Z,124
2019-03-22T05:46:13.970Z,128
2019-03-22T05:46:54.516Z,132
2019-03-22T05:47:36.058Z,132
2019-03-22T05:48:16.705Z,136
2019-03-22T05:48:57.275Z,140
2019-03-22T05:49:37.848Z,144
2019-03-22T05:50:18.432Z,148
2019-03-22T05:50:58.983Z,148
2019-03-22T05:51:39.540Z,152
2019-03-22T05:52:20.100Z,156
2019-03-22T05:53:00.654Z,164
2019-03-22T05:53:41.223Z,168
2019-03-22T05:54:21.783Z,172
2019-03-22T05:55:02.384Z,176
2019-03-22T05:55:42.936Z,188
2019-03-22T05:56:23.498Z,196
2019-03-22T05:57:12.722Z,204
2019-03-22T05:57:44.612Z,204
2019-03-22T05:58:25.174Z,208
2019-03-22T05:59:05.752Z,216
2019-03-22T05:59:46.336Z,220
2019-03-22T06:00:26.901Z,224
2019-03-22T06:01:07.466Z,228
2019-03-22T06:01:48.515Z,236
2019-03-22T06:02:29.077Z,244
2019-03-22T06:03:09.661Z,244
2019-03-22T06:03:50.225Z,236
2019-03-22T06:04:30.788Z,228
2019-03-22T06:05:11.373Z,220
2019-03-22T06:05:52.015Z,220
2019-03-22T06:06:32.575Z,212
2019-03-22T06:07:13.166Z,216
2019-03-22T06:07:53.700Z,220
2019-03-22T06:08:34.271Z,228
2019-03-22T06:09:14.832Z,232
2019-03-22T06:09:55.401Z,244
2019-03-22T06:10:35.957Z,252
2019-03-22T06:11:16.579Z,264
2019-03-22T06:11:57.131Z,276
2019-03-22T06:12:37.784Z,276
2019-03-22T06:13:18.392Z,268
2019-03-22T06:13:58.948Z,264
2019-03-22T06:14:39.514Z,260
2019-03-22T06:15:20.314Z,256
2019-03-22T06:16:01.022Z,256
2019-03-22T06:16:41.875Z,280
2019-03-22T06:17:22.431Z,304
2019-03-22T06:18:02.996Z,316
2019-03-22T06:18:43.569Z,320
2019-03-22T06:19:24.123Z,328
2019-03-22T06:20:04.684Z,344
2019-03-22T06:20:45.261Z,344
2019-03-22T06:21:25.819Z,344
2019-03-22T06:22:06.374Z,344
2019-03-22T06:22:46.928Z,336
2019-03-22T06:23:27.543Z,320
2019-03-22T06:24:08.113Z,324
2019-03-22T06:24:48.839Z,344
2019-03-22T06:25:29.399Z,368
2019-03-22T06:26:09.964Z,348
2019-03-22T06:26:50.550Z,380
2019-03-22T06:27:31.137Z,396
2019-03-22T06:28:11.732Z,396
2019-03-22T06:28:52.297Z,388
2019-03-22T06:29:32.900Z,388
2019-03-22T06:30:13.480Z,396
2019-03-22T06:30:54.046Z,396
2019-03-22T06:31:34.605Z,384
2019-03-22T06:32:15.169Z,372
2019-03-22T06:32:55.732Z,376
2019-03-22T06:33:36.326Z,404
2019-03-22T06:34:16.877Z,432
2019-03-22T06:34:57.441Z,436
2019-03-22T06:35:38.015Z,440
2019-03-22T06:36:18.593Z,448
2019-03-22T06:36:59.145Z,456
2019-03-22T06:37:39.703Z,468
2019-03-22T06:38:20.276Z,484
2019-03-22T06:39:00.839Z,488
2019-03-22T06:39:41.397Z,484
2019-03-22T06:40:21.951Z,484
2019-03-22T06:41:02.501Z,480
2019-03-22T06:41:43.099Z,480
2019-03-22T06:42:23.652Z,480
2019-03-22T06:43:04.224Z,476
2019-03-22T06:43:44.810Z,480
2019-03-22T06:44:25.380Z,488
2019-03-22T06:45:05.964Z,492
2019-03-22T06:45:46.495Z,496
2019-03-22T06:46:27.129Z,500
2019-03-22T06:47:07.695Z,504
2019-03-22T06:47:48.256Z,496
2019-03-22T06:48:28.812Z,492
2019-03-22T06:49:09.402Z,492
2019-03-22T06:49:49.943Z,500
2019-03-22T06:50:30.684Z,508
2019-03-22T06:51:11.246Z,512
2019-03-22T06:51:51.811Z,520
2019-03-22T06:52:32.370Z,520
2019-03-22T06:53:12.954Z,516
2019-03-22T06:53:53.519Z,508
2019-03-22T06:54:34.114Z,504
2019-03-22T06:55:14.691Z,496
2019-03-22T06:55:55.256Z,488
2019-03-22T06:56:35.842Z,480
2019-03-22T06:57:16.406Z,476
2019-03-22T06:57:56.970Z,480
2019-03-22T06:58:37.557Z,488
2019-03-22T06:59:18.189Z,496
2019-03-22T07:00:06.169Z,508
2019-03-22T07:00:39.324Z,516
2019-03-22T07:01:19.879Z,520
2019-03-22T07:02:00.441Z,528
2019-03-22T07:02:40.997Z,536
2019-03-22T07:03:21.576Z,540
2019-03-22T07:04:02.211Z,544
2019-03-22T07:04:42.783Z,544
2019-03-22T07:05:23.354Z,540
2019-03-22T07:06:03.927Z,540
2019-03-22T07:06:44.490Z,544
2019-03-22T07:07:25.036Z,544
2019-03-22T07:08:05.766Z,552
2019-03-22T07:08:46.319Z,568
2019-03-22T07:09:26.881Z,580
2019-03-22T07:10:07.467Z,592
2019-03-22T07:10:48.041Z,604
2019-03-22T07:11:28.629Z,616
2019-03-22T07:12:09.186Z,612
2019-03-22T07:12:49.754Z,616
2019-03-22T07:13:30.330Z,624
2019-03-22T07:14:10.891Z,628
2019-03-22T07:14:51.464Z,632
2019-03-22T07:15:32.109Z,640
2019-03-22T07:16:12.686Z,652
2019-03-22T07:16:53.237Z,664
2019-03-22T07:17:33.814Z,684
2019-03-22T07:18:14.428Z,704
2019-03-22T07:18:54.959Z,724
2019-03-22T07:19:35.529Z,740
2019-03-22T07:20:16.094Z,744
2019-03-22T07:20:56.780Z,744
2019-03-22T07:21:37.352Z,740
2019-03-22T07:22:17.929Z,736
2019-03-22T07:22:58.486Z,728
2019-03-22T07:23:39.139Z,724
2019-03-22T07:24:19.708Z,724
2019-03-22T07:25:00.452Z,724
2019-03-22T07:25:40.867Z,732
2019-03-22T07:26:21.420Z,732
2019-03-22T07:27:02.568Z,736
2019-03-22T07:27:43.161Z,740
2019-03-22T07:28:23.726Z,748
2019-03-22T07:29:04.307Z,752
2019-03-22T07:29:44.875Z,760
2019-03-22T07:30:25.450Z,768
2019-03-22T07:31:06.022Z,768
2019-03-22T07:31:46.586Z,772
2019-03-22T07:32:27.148Z,780
2019-03-22T07:33:07.711Z,784
2019-03-22T07:33:48.343Z,800
2019-03-22T07:34:28.900Z,808
2019-03-22T07:35:09.482Z,816
2019-03-22T07:35:50.167Z,828
2019-03-22T07:36:30.730Z,844
2019-03-22T07:37:11.305Z,856
2019-03-22T07:37:51.869Z,872
2019-03-22T07:38:32.416Z,880
2019-03-22T07:39:12.984Z,884
2019-03-22T07:39:53.564Z,880
2019-03-22T07:40:34.143Z,876
2019-03-22T07:41:14.785Z,876
2019-03-22T07:41:55.380Z,876
2019-03-22T07:42:35.952Z,884
2019-03-22T07:43:16.512Z,900
2019-03-22T07:43:57.065Z,912
2019-03-22T07:44:37.637Z,920
2019-03-22T07:45:18.194Z,928
2019-03-22T07:45:58.841Z,936
2019-03-22T07:46:39.617Z,940
2019-03-22T07:47:20.187Z,944
2019-03-22T07:48:00.781Z,944
2019-03-22T07:48:41.356Z,952
2019-03-22T07:49:21.949Z,956
2019-03-22T07:50:02.518Z,968
2019-03-22T07:50:43.225Z,980
2019-03-22T07:51:23.648Z,1000
2019-03-22T07:52:04.212Z,1020
2019-03-22T07:52:44.767Z,1040
2019-03-22T07:53:25.534Z,1056
2019-03-22T07:54:05.981Z,1068
2019-03-22T07:54:46.477Z,1080
2019-03-22T07:55:27.185Z,1080
2019-03-22T07:56:07.745Z,1088
2019-03-22T07:56:48.329Z,1092
2019-03-22T07:57:28.907Z,1100
2019-03-22T07:58:09.468Z,1112
2019-03-22T07:58:50.111Z,1128
2019-03-22T07:59:30.853Z,1148
2019-03-22T08:00:11.433Z,1160
2019-03-22T08:00:52.041Z,1180
2019-03-22T08:01:32.635Z,1192
2019-03-22T08:02:13.192Z,1196
2019-03-22T08:02:53.793Z,1204
2019-03-22T08:03:34.382Z,1204
2019-03-22T08:04:14.970Z,1208
2019-03-22T08:04:55.539Z,1212
2019-03-22T08:05:36.111Z,1220
2019-03-22T08:06:16.664Z,1224
2019-03-22T08:06:57.236Z,1236
2019-03-22T08:07:37.786Z,1240
2019-03-22T08:08:18.373Z,1248
2019-03-22T08:08:59.151Z,1252
2019-03-22T08:09:39.808Z,1252
2019-03-22T08:10:21.020Z,1252
2019-03-22T08:11:01.593Z,1256
2019-03-22T08:11:42.158Z,1268
2019-03-22T08:12:22.717Z,1292
2019-03-22T08:13:03.366Z,1308
2019-03-22T08:13:44.000Z,1320
2019-03-22T08:14:24.607Z,1352
2019-03-22T08:15:08.058Z,1380
2019-03-22T08:15:45.789Z,1412
2019-03-22T08:16:26.354Z,1440
2019-03-22T08:17:06.897Z,1464
2019-03-22T08:17:47.452Z,1484
2019-03-22T08:18:28.017Z,1496
2019-03-22T08:19:08.733Z,1500
2019-03-22T08:19:49.534Z,1492
2019-03-22T08:20:30.096Z,1480
2019-03-22T08:21:10.748Z,1460
2019-03-22T08:21:51.310Z,1452
2019-03-22T08:22:32.262Z,1444
2019-03-22T08:23:12.850Z,1448
2019-03-22T08:23:53.508Z,1464
2019-03-22T08:24:34.050Z,1480
2019-03-22T08:25:14.616Z,1484
2019-03-22T08:25:55.299Z,1496
2019-03-22T08:26:35.841Z,1492
2019-03-22T08:27:16.369Z,1476
2019-03-22T08:27:57.003Z,1460
2019-03-22T08:28:37.933Z,1444
2019-03-22T08:29:18.497Z,1424
2019-03-22T08:29:59.076Z,1396
2019-03-22T08:30:43.138Z,1404
2019-03-22T08:31:20.197Z,1404
2019-03-22T08:32:00.775Z,1412
2019-03-22T08:32:41.348Z,1428
2019-03-22T08:33:21.906Z,1452
2019-03-22T08:34:02.524Z,1468
2019-03-22T08:34:43.107Z,1476
2019-03-22T08:35:23.821Z,1480
2019-03-22T08:36:04.514Z,1480
2019-03-22T08:36:45.714Z,1496
2019-03-22T08:37:26.385Z,1500
2019-03-22T08:38:06.971Z,1496
2019-03-22T08:38:47.783Z,1524
2019-03-22T08:39:29.443Z,1532
2019-03-22T08:40:10.070Z,1532
2019-03-22T08:40:51.638Z,1548
2019-03-22T08:41:32.165Z,1556
2019-03-22T08:42:12.729Z,1560
2019-03-22T08:42:53.326Z,1568
2019-03-22T08:43:33.892Z,1568
2019-03-22T08:44:14.464Z,1560
2019-03-22T08:44:55.068Z,1548
2019-03-22T08:45:35.645Z,1528
2019-03-22T08:46:16.346Z,1496
2019-03-22T08:46:56.920Z,1472
2019-03-22T08:47:37.507Z,1456
2019-03-22T08:48:18.041Z,1440
2019-03-22T08:48:58.656Z,1432
2019-03-22T08:49:39.453Z,1444
2019-03-22T08:50:20.567Z,1460
2019-03-22T08:51:01.153Z,1484
2019-03-22T08:51:42.462Z,1508
2019-03-22T08:52:23.044Z,1556
2019-03-22T08:53:03.751Z,1584
2019-03-22T08:53:54.548Z,1596
2019-03-22T08:54:24.858Z,1608
2019-03-22T08:55:05.442Z,1608
2019-03-22T08:55:46.003Z,1596
2019-03-22T08:56:26.569Z,1580
2019-03-22T08:57:07.187Z,1564
2019-03-22T08:57:47.730Z,1548
2019-03-22T08:58:28.326Z,1532
2019-03-22T08:59:08.888Z,1524
2019-03-22T08:59:49.448Z,1516
2019-03-22T09:00:38.919Z,1520
2019-03-22T09:01:10.745Z,1520
2019-03-22T09:01:51.479Z,1528
2019-03-22T09:02:33.558Z,1528
2019-03-22T09:03:14.147Z,1528
2019-03-22T09:03:54.725Z,1524
2019-03-22T09:04:35.415Z,1520
2019-03-22T09:05:16.015Z,1516
2019-03-22T09:05:56.669Z,1524
2019-03-22T09:06:37.188Z,1504
2019-03-22T09:07:17.898Z,1508
2019-03-22T09:07:58.407Z,1516
2019-03-22T09:08:38.974Z,1524
2019-03-22T09:09:19.553Z,1540
2019-03-22T09:10:00.314Z,1552
2019-03-22T09:10:40.717Z,1576
2019-03-22T09:11:21.266Z,1592
2019-03-22T09:12:01.866Z,1604
2019-03-22T09:12:42.501Z,1620
2019-03-22T09:13:23.055Z,1628
2019-03-22T09:14:03.611Z,1616
2019-03-22T09:14:44.169Z,1616
2019-03-22T09:15:24.745Z,1636
2019-03-22T09:16:05.445Z,1664
2019-03-22T09:16:45.948Z,1692
2019-03-22T09:17:26.529Z,1716
2019-03-22T09:18:07.138Z,1744
2019-03-22T09:18:47.796Z,1768
2019-03-22T09:19:28.482Z,1808
2019-03-22T09:20:09.138Z,1848
2019-03-22T09:20:49.713Z,1888
2019-03-22T09:21:30.373Z,1920
2019-03-22T09:22:10.944Z,1940
2019-03-22T09:22:51.537Z,1960
2019-03-22T09:23:32.052Z,1984
2019-03-22T09:24:12.648Z,2000
2019-03-22T09:24:53.325Z,2028
2019-03-22T09:25:33.892Z,2052
2019-03-22T09:26:14.514Z,2044
2019-03-22T09:26:55.356Z,2032
2019-03-22T09:27:36.684Z,2008
2019-03-22T09:28:16.825Z,1992
2019-03-22T09:28:57.453Z,1964
2019-03-22T09:29:38.056Z,1940
2019-03-22T09:30:18.668Z,1928
2019-03-22T09:31:09.735Z,1912
2019-03-22T09:31:39.888Z,1912
2019-03-22T09:32:20.456Z,1924
2019-03-22T09:33:01.073Z,1948
2019-03-22T09:33:41.544Z,1980
2019-03-22T09:34:33.071Z,1992
2019-03-22T09:35:02.899Z,1988
2019-03-22T09:35:43.423Z,1996
2019-03-22T09:36:24.060Z,1992
2019-03-22T09:37:04.645Z,1984